首页
METAR-TAF:

METAR-TAF

机场 :

曼海姆, 德国

纬度: 49-28-21N, 经度: 008-30-56E, 海拔: 100米

当前天气观测

该预报发布于9小时和4分钟前的19:50 UTC
风速8节,风向,在南转南东西南之间变化
温度 5°C
湿度 81%
气压 1013 hPa
能见度10公里或以上
少量云层高于1400英尺
阴天层高于8000英尺

METAR: EDFM 181950Z 19008KT 160V220 9999 FEW014 OVC080 05/02 Q1013

时间: 05:54 (04:54 UTC)

预报

该预报发布于11小时和54分钟前的17:00 UTC
预报有效从18日的 18点(UTC)到 18日的 21点(UTC)
风速8节,风向
能见度10公里或以上
多云层高于2500英尺
短暂存在
从 18日的 18点(UTC)到 18日的 21点(UTC)
能見度: 4000
多云层高于800英尺
小毛毛雨, 雨

TAF: EDFM 181700Z 1818/1821 19008KT 9999 BKN025 TEMPO 1818/1821 4000 -DZRA BKN008

超过4000个机场的气象观测和天气预报(METAR&TAF报告)。

可查询的气象台以黄色和红色小点在地图上表示。

将鼠标移到小点上方,可查看气象台名称。

然后点击查看天气观测和预报。

如需切换地图:点击带黑十字的绿色按钮放大地图;点击带横线的绿色按钮缩小地图;或者点击绿色箭头查看邻近地区的地图。


METAR-TAF: